Time;durP1;ratioP1;P1;durP2;ratioP2;P2;SDS_P1;SDS_P2;PMS_P1;PMS_P2;Temp;Humidity;BMP_temperature;BMP_pressure;BME280_temperature;BME280_humidity;BME280_pressure;Samples;Min_cycle;Max_cycle;Signal;HPM_P1;HPM_P2
2023/04/07 00:00:42;;;;;;;;;;;;;;;3.95;79.94;101781.97;108228;1254;124344;-81
2023/04/07 00:03:19;;;;;;;;;;;;;;;3.97;79.93;101779.50;107867;1260;60680;-81
2023/04/07 00:05:47;;;;;;;;;;;;;;;3.98;79.84;101778.88;107831;1254;124728;-79
2023/04/07 00:08:14;;;;;;;;;;;;;;;3.97;80.08;101778.30;108030;1254;65863;-79
2023/04/07 00:10:41;;;;;;;;;;;;;;;3.96;80.18;101772.69;107739;1257;72616;-78
2023/04/07 00:13:09;;;;;;;;;;;;;;;3.97;80.37;101765.98;107516;1254;124309;-79
2023/04/07 00:15:36;;;;;;;;;;;;;;;3.98;80.18;101765.14;107800;1253;58770;-80
2023/04/07 00:18:03;;;;;;;;;;;;;;;3.97;80.36;101765.44;107698;1257;73825;-79
2023/04/07 00:20:30;;;;;;;;;;;;;;;3.92;80.72;101764.96;107687;1253;65888;-80
2023/04/07 00:22:56;;;;;;;;;;;;;;;3.89;80.97;101760.89;107627;1257;72640;-80
2023/04/07 00:25:24;;;;;;;;;;;;;;;3.90;81.21;101759.05;107352;1254;124219;-79
2023/04/07 00:27:51;;;;;;;;;;;;;;;3.94;81.17;101760.17;107734;1254;60352;-78
2023/04/07 00:30:18;;;;;;;;;;;;;;;3.96;81.03;101757.91;107824;1254;124477;-78
2023/04/07 00:32:45;;;;;;;;;;;;;;;3.98;81.17;101761.35;107900;1254;65496;-78
2023/04/07 00:35:12;;;;;;;;;;;;;;;4.00;81.14;101755.73;107814;1253;72712;-78
2023/04/07 00:37:39;;;;;;;;;;;;;;;4.02;81.10;101758.67;107645;1254;124590;-78
2023/04/07 00:40:07;;;;;;;;;;;;;;;4.02;81.17;101753.47;107822;1253;60156;-78
2023/04/07 00:42:34;;;;;;;;;;;;;;;4.01;81.01;101748.16;107510;1259;124743;-78
2023/04/07 00:45:01;;;;;;;;;;;;;;;3.98;81.10;101742.77;107610;1254;66463;-78
2023/04/07 00:47:28;;;;;;;;;;;;;;;3.98;81.08;101742.23;107455;1254;71385;-77
2023/04/07 00:49:55;;;;;;;;;;;;;;;3.98;81.21;101737.58;107610;1254;124503;-78
2023/04/07 00:52:27;;;;;;;;;;;;;;;4.00;81.41;101738.52;108945;1254;59734;-77
2023/04/07 00:54:54;;;;;;;;;;;;;;;4.02;81.34;101738.20;108963;1254;124499;-77
2023/04/07 00:57:21;;;;;;;;;;;;;;;4.05;81.45;101738.19;107548;1254;65441;-79
2023/04/07 00:59:49;;;;;;;;;;;;;;;4.06;81.39;101731.14;107267;1260;124413;-79
2023/04/07 01:02:17;;;;;;;;;;;;;;;4.05;81.36;101739.08;107647;1254;60520;-79
2023/04/07 01:04:50;;;;;;;;;;;;;;;4.03;81.24;101740.51;107655;1257;59572;-80
2023/04/07 01:07:18;;;;;;;;;;;;;;;4.01;81.42;101732.88;107743;1254;124071;-79
2023/04/07 01:09:46;;;;;;;;;;;;;;;4.02;81.61;101725.64;108060;1254;66994;-79
2023/04/07 01:12:16;;;;;;;;;;;;;;;4.02;81.71;101727.77;107524;1254;124692;-79
2023/04/07 01:14:49;;;;;;;;;;;;;;;4.03;81.65;101722.61;107588;1254;60463;-77
2023/04/07 01:17:16;;;;;;;;;;;;;;;4.04;81.61;101721.09;107637;1259;60222;-77
2023/04/07 01:19:47;;;;;;;;;;;;;;;4.07;81.84;101720.27;108843;1254;124330;-80
2023/04/07 01:22:16;;;;;;;;;;;;;;;4.09;81.76;101718.00;109226;1254;66859;-80
2023/04/07 01:24:55;;;;;;;;;;;;;;;4.08;81.79;101709.40;107672;1256;124606;-79
2023/04/07 01:27:22;;;;;;;;;;;;;;;4.10;81.84;101713.85;108083;1254;60540;-79
2023/04/07 01:29:49;;;;;;;;;;;;;;;4.09;82.07;101714.31;107865;1254;124515;-79
2023/04/07 01:32:17;;;;;;;;;;;;;;;4.09;82.05;101711.17;107567;1254;73840;-78
2023/04/07 01:34:44;;;;;;;;;;;;;;;4.07;82.09;101710.91;108916;1254;65954;-79
2023/04/07 01:37:11;;;;;;;;;;;;;;;4.06;82.08;101714.64;108746;1256;125357;-79
2023/04/07 01:39:38;;;;;;;;;;;;;;;4.05;82.22;101709.38;108895;1254;59198;-79
2023/04/07 01:42:05;;;;;;;;;;;;;;;4.06;82.14;101710.30;108918;1254;124439;-81
2023/04/07 01:44:32;;;;;;;;;;;;;;;4.08;82.08;101710.08;108970;1259;73974;-81
2023/04/07 01:46:59;;;;;;;;;;;;;;;4.08;82.31;101707.48;108830;1257;65900;-80
2023/04/07 01:49:26;;;;;;;;;;;;;;;4.09;82.20;101706.00;107418;1254;124676;-80
2023/04/07 01:51:53;;;;;;;;;;;;;;;4.15;82.21;101707.03;107734;1255;60060;-81
2023/04/07 01:54:20;;;;;;;;;;;;;;;4.15;82.10;101707.05;107567;1257;124275;-81
2023/04/07 01:56:47;;;;;;;;;;;;;;;4.17;82.20;101707.73;107572;1256;73347;-81
2023/04/07 01:59:16;;;;;;;;;;;;;;;4.18;82.02;101705.70;107672;1254;66194;-80
2023/04/07 02:01:43;;;;;;;;;;;;;;;4.20;82.19;101703.22;107659;1257;124845;-80
2023/04/07 02:04:12;;;;;;;;;;;;;;;4.21;82.28;101707.29;107639;1254;58402;-80
2023/04/07 02:07:05;;;;;;;;;;;;;;;4.25;82.23;101711.23;107622;1254;124285;-80
2023/04/07 02:09:32;;;;;;;;;;;;;;;4.29;82.14;101714.41;109024;1254;74257;-80
2023/04/07 02:11:59;;;;;;;;;;;;;;;4.30;81.98;101715.00;109100;1254;124761;-80
2023/04/07 02:14:26;;;;;;;;;;;;;;;4.28;82.00;101717.34;108101;1253;72739;-78
2023/04/07 02:16:53;;;;;;;;;;;;;;;4.27;82.01;101717.97;107724;1254;59536;-80
2023/04/07 02:19:20;;;;;;;;;;;;;;;4.27;81.85;101717.11;107860;1254;124430;-79
2023/04/07 02:21:47;;;;;;;;;;;;;;;4.26;81.91;101711.94;107869;1254;72210;-79
2023/04/07 02:24:17;;;;;;;;;;;;;;;4.26;82.02;101712.17;107835;1253;125031;-80
2023/04/07 02:26:44;;;;;;;;;;;;;;;4.25;81.86;101707.02;107939;1254;71117;-78
2023/04/07 02:29:11;;;;;;;;;;;;;;;4.26;82.09;101707.45;108013;1254;60530;-78
2023/04/07 02:31:38;;;;;;;;;;;;;;;4.28;82.02;101703.41;107842;1254;124436;-80
2023/04/07 02:34:05;;;;;;;;;;;;;;;4.30;82.07;101705.61;107893;1254;71603;-78
2023/04/07 02:36:32;;;;;;;;;;;;;;;4.34;82.02;101704.15;107673;1254;125819;-78
2023/04/07 02:38:59;;;;;;;;;;;;;;;4.37;81.93;101705.02;107936;1258;71377;-78
2023/04/07 02:41:27;;;;;;;;;;;;;;;4.36;81.84;101696.98;107903;1254;61469;-78
2023/04/07 02:43:54;;;;;;;;;;;;;;;4.36;81.91;101691.20;107886;1254;124655;-78
2023/04/07 02:46:20;;;;;;;;;;;;;;;4.36;81.84;101688.48;107825;1254;72699;-78
2023/04/07 02:48:47;;;;;;;;;;;;;;;4.39;81.85;101688.50;107954;1256;124280;-78
2023/04/07 02:51:14;;;;;;;;;;;;;;;4.41;81.82;101691.53;108034;1254;70189;-78
2023/04/07 02:53:41;;;;;;;;;;;;;;;4.42;81.76;101691.29;107731;1258;124841;-78
2023/04/07 02:56:08;;;;;;;;;;;;;;;4.41;81.63;101690.56;107775;1254;59475;-79
2023/04/07 02:58:35;;;;;;;;;;;;;;;4.39;81.68;101687.45;108360;1255;73902;-80
2023/04/07 03:01:02;;;;;;;;;;;;;;;4.41;81.75;101687.54;108379;1257;124788;-79
2023/04/07 03:03:29;;;;;;;;;;;;;;;4.39;81.70;101688.16;107879;1260;71358;-80
2023/04/07 03:05:56;;;;;;;;;;;;;;;4.39;81.66;101691.94;107784;1255;125057;-80
2023/04/07 03:08:23;;;;;;;;;;;;;;;4.38;81.67;101687.89;107885;1254;60413;-80
2023/04/07 03:10:50;;;;;;;;;;;;;;;4.37;81.71;101686.95;107836;1254;73886;-80
2023/04/07 03:13:18;;;;;;;;;;;;;;;4.39;81.88;101689.16;107796;1254;124824;-80
2023/04/07 03:15:46;;;;;;;;;;;;;;;4.38;81.75;101684.73;107727;1254;71377;-78
2023/04/07 03:18:13;;;;;;;;;;;;;;;4.38;81.82;101685.82;107990;1258;124840;-78
2023/04/07 03:20:41;;;;;;;;;;;;;;;4.41;81.94;101686.50;107951;1257;60306;-77
2023/04/07 03:23:08;;;;;;;;;;;;;;;4.40;81.83;101691.35;107756;1254;71701;-78
2023/04/07 03:25:35;;;;;;;;;;;;;;;4.40;81.98;101691.31;108818;1254;124474;-78
2023/04/07 03:28:02;;;;;;;;;;;;;;;4.40;81.98;101692.71;108972;1254;73023;-78
2023/04/07 03:30:29;;;;;;;;;;;;;;;4.39;82.12;101696.30;109059;1255;124917;-78
2023/04/07 03:32:56;;;;;;;;;;;;;;;4.40;82.07;101694.29;108947;1257;58841;-78
2023/04/07 03:35:23;;;;;;;;;;;;;;;4.41;82.12;101693.30;109099;1253;73867;-79
2023/04/07 03:37:50;;;;;;;;;;;;;;;4.44;82.18;101691.41;109052;1253;124302;-82
2023/04/07 03:40:17;;;;;;;;;;;;;;;4.44;82.16;101688.66;109162;1254;72457;-81
2023/04/07 03:42:45;;;;;;;;;;;;;;;4.45;82.10;101687.70;108987;1254;124940;-82
2023/04/07 03:45:12;;;;;;;;;;;;;;;4.46;82.21;101688.91;108972;1257;58845;-82
2023/04/07 03:47:40;;;;;;;;;;;;;;;4.45;82.34;101688.02;108293;1254;124614;-80
2023/04/07 03:50:07;;;;;;;;;;;;;;;4.44;82.30;101690.54;107913;1253;66909;-78
2023/04/07 03:52:34;;;;;;;;;;;;;;;4.45;82.37;101693.55;107838;1254;71364;-80
2023/04/07 03:55:01;;;;;;;;;;;;;;;4.45;82.37;101690.06;107923;1255;124468;-79
2023/04/07 03:57:28;;;;;;;;;;;;;;;4.49;82.48;101692.75;107598;1254;60360;-79
2023/04/07 03:59:55;;;;;;;;;;;;;;;4.52;82.53;101690.17;108095;1257;124820;-79
2023/04/07 04:02:22;;;;;;;;;;;;;;;4.55;82.53;101681.64;108296;1255;65962;-79
2023/04/07 04:04:49;;;;;;;;;;;;;;;4.57;82.50;101685.45;108021;1254;71693;-78
2023/04/07 04:07:18;;;;;;;;;;;;;;;4.56;82.44;101689.40;107953;1257;124325;-81
2023/04/07 04:09:59;;;;;;;;;;;;;;;4.56;82.55;101685.57;107659;1257;59703;-80
2023/04/07 04:12:26;;;;;;;;;;;;;;;4.57;82.60;101687.70;107784;1257;125582;-81
2023/04/07 04:14:54;;;;;;;;;;;;;;;4.54;82.53;101687.67;108602;1257;65533;-81
2023/04/07 04:17:22;;;;;;;;;;;;;;;4.55;82.56;101690.35;107723;1258;71370;-79
2023/04/07 04:19:55;;;;;;;;;;;;;;;4.54;82.61;101692.89;107781;1254;124514;-79
2023/04/07 04:22:23;;;;;;;;;;;;;;;4.55;82.68;101692.98;107904;1257;60228;-80
2023/04/07 04:24:50;;;;;;;;;;;;;;;4.58;82.79;101693.36;107873;1254;124478;-80
2023/04/07 04:27:17;;;;;;;;;;;;;;;4.56;82.78;101694.27;107699;1254;66773;-80
2023/04/07 04:29:44;;;;;;;;;;;;;;;4.51;82.94;101693.27;107933;1254;124505;-81
2023/04/07 04:32:11;;;;;;;;;;;;;;;4.50;82.80;101692.16;108298;1255;58500;-77
2023/04/07 04:34:40;;;;;;;;;;;;;;;4.48;82.98;101688.53;107758;1255;60388;-80
2023/04/07 04:37:07;;;;;;;;;;;;;;;4.45;83.11;101678.83;108300;1256;124402;-79
2023/04/07 04:39:35;;;;;;;;;;;;;;;4.45;83.41;101672.40;107991;1254;65931;-79
2023/04/07 04:42:02;;;;;;;;;;;;;;;4.45;83.38;101670.27;107351;1254;124403;-78
2023/04/07 04:44:29;;;;;;;;;;;;;;;4.46;83.43;101670.85;107864;1258;60613;-79
2023/04/07 04:46:56;;;;;;;;;;;;;;;4.48;83.44;101668.02;107964;1254;60341;-79
2023/04/07 04:49:23;;;;;;;;;;;;;;;4.48;83.38;101668.41;108087;1258;124469;-80
2023/04/07 04:51:50;;;;;;;;;;;;;;;4.48;83.49;101664.73;107912;1255;67004;-80
2023/04/07 04:54:18;;;;;;;;;;;;;;;4.49;83.50;101659.56;107475;1254;124402;-79
2023/04/07 04:56:45;;;;;;;;;;;;;;;4.48;83.61;101668.04;107585;1254;58754;-79
2023/04/07 04:59:12;;;;;;;;;;;;;;;4.48;83.62;101669.92;107514;1254;60908;-80
2023/04/07 05:01:39;;;;;;;;;;;;;;;4.51;83.62;101679.16;107123;1254;124353;-79
2023/04/07 05:04:07;;;;;;;;;;;;;;;4.53;83.51;101679.27;107502;1254;67082;-80
2023/04/07 05:06:35;;;;;;;;;;;;;;;4.53;83.73;101671.09;107677;1257;124254;-81
2023/04/07 05:09:02;;;;;;;;;;;;;;;4.53;83.66;101667.48;107676;1254;60536;-80
2023/04/07 05:11:30;;;;;;;;;;;;;;;4.55;83.74;101666.92;107811;1257;60608;-79
2023/04/07 05:13:57;;;;;;;;;;;;;;;4.57;83.71;101666.32;107819;1254;124725;-80
2023/04/07 05:16:24;;;;;;;;;;;;;;;4.56;83.77;101666.80;107845;1254;67048;-80
2023/04/07 05:18:51;;;;;;;;;;;;;;;4.56;83.70;101665.91;107541;1257;124764;-80
2023/04/07 05:21:21;;;;;;;;;;;;;;;4.56;83.80;101669.73;107710;1254;60388;-80
2023/04/07 05:23:48;;;;;;;;;;;;;;;4.57;83.85;101674.70;107568;1254;125038;-82
2023/04/07 05:26:15;;;;;;;;;;;;;;;4.58;83.96;101682.41;107693;1254;72536;-78
2023/04/07 05:28:42;;;;;;;;;;;;;;;4.61;84.08;101686.42;107763;1257;67006;-79
2023/04/07 05:31:09;;;;;;;;;;;;;;;4.64;84.03;101692.69;107777;1254;124563;-79
2023/04/07 05:33:36;;;;;;;;;;;;;;;4.65;84.12;101697.95;107811;1256;60588;-79
2023/04/07 05:36:03;;;;;;;;;;;;;;;4.65;84.08;101690.48;108017;1254;125191;-80
2023/04/07 05:38:30;;;;;;;;;;;;;;;4.65;84.17;101692.08;108271;1259;73664;-80
2023/04/07 05:40:57;;;;;;;;;;;;;;;4.69;84.31;101696.13;108000;1254;67105;-79
2023/04/07 05:43:24;;;;;;;;;;;;;;;4.72;84.34;101706.92;107972;1254;124744;-79
2023/04/07 05:45:54;;;;;;;;;;;;;;;4.72;84.52;101703.45;107757;1254;61785;-82
2023/04/07 05:48:21;;;;;;;;;;;;;;;4.73;84.54;101708.23;107781;1253;124315;-81
2023/04/07 05:50:48;;;;;;;;;;;;;;;4.74;84.59;101702.39;107582;1259;74393;-80
2023/04/07 05:53:15;;;;;;;;;;;;;;;4.75;84.72;101693.53;107754;1255;67319;-82
2023/04/07 05:55:42;;;;;;;;;;;;;;;4.78;84.91;101683.49;107683;1259;124862;-80
2023/04/07 05:58:10;;;;;;;;;;;;;;;4.80;84.88;101681.39;107855;1256;60329;-80
2023/04/07 06:00:37;;;;;;;;;;;;;;;4.81;84.92;101685.07;107638;1253;124288;-80
2023/04/07 06:03:04;;;;;;;;;;;;;;;4.84;85.02;101693.80;108702;1254;73890;-80
2023/04/07 06:05:31;;;;;;;;;;;;;;;4.87;85.01;101691.56;109146;1253;66722;-80
2023/04/07 06:07:58;;;;;;;;;;;;;;;4.88;85.14;101697.01;109002;1254;124079;-80
2023/04/07 06:10:45;;;;;;;;;;;;;;;4.93;85.19;101696.80;109204;1254;58518;-79
2023/04/07 06:13:32;;;;;;;;;;;;;;;5.03;85.27;101708.77;108381;1261;124796;-80
2023/04/07 06:15:59;;;;;;;;;;;;;;;5.07;85.08;101706.52;107326;1262;73457;-80
2023/04/07 06:18:26;;;;;;;;;;;;;;;5.10;85.32;101707.04;107040;1263;125657;-79
2023/04/07 06:20:53;;;;;;;;;;;;;;;5.14;85.31;101714.97;108586;1260;71367;-79
2023/04/07 06:23:20;;;;;;;;;;;;;;;5.18;85.14;101714.15;108570;1263;58548;-80
2023/04/07 06:25:51;;;;;;;;;;;;;;;5.23;85.21;101712.75;108192;1261;125210;-80
2023/04/07 06:28:18;;;;;;;;;;;;;;;5.29;85.10;101712.21;107137;1261;73947;-80
2023/04/07 06:30:46;;;;;;;;;;;;;;;5.30;85.01;101709.64;106987;1262;124458;-82
2023/04/07 06:33:13;;;;;;;;;;;;;;;5.33;85.06;101709.86;107115;1261;72764;-80
2023/04/07 06:35:40;;;;;;;;;;;;;;;5.37;85.01;101714.28;107147;1261;125222;-79
2023/04/07 06:38:07;;;;;;;;;;;;;;;5.38;84.88;101713.14;107291;1263;60111;-79
2023/04/07 06:40:34;;;;;;;;;;;;;;;5.37;84.77;101710.64;107424;1267;74373;-79
2023/04/07 06:43:02;;;;;;;;;;;;;;;5.38;84.93;101708.09;107352;1262;125095;-79
2023/04/07 06:45:29;;;;;;;;;;;;;;;5.38;85.06;101711.55;107619;1265;71409;-80
2023/04/07 06:47:56;;;;;;;;;;;;;;;5.36;84.90;101709.89;107346;1260;124987;-79
2023/04/07 06:50:23;;;;;;;;;;;;;;;5.35;84.90;101710.48;107626;1257;60064;-80
2023/04/07 06:52:50;;;;;;;;;;;;;;;5.36;85.00;101710.59;108126;1254;73923;-79
2023/04/07 06:55:17;;;;;;;;;;;;;;;5.34;84.68;101715.82;108068;1254;125013;-80
2023/04/07 06:57:44;;;;;;;;;;;;;;;5.29;84.64;101715.20;107930;1257;72728;-80
2023/04/07 07:00:11;;;;;;;;;;;;;;;5.29;84.76;101718.81;107689;1256;125461;-79
2023/04/07 07:02:38;;;;;;;;;;;;;;;5.26;84.91;101717.49;108102;1257;60462;-79
2023/04/07 07:05:05;;;;;;;;;;;;;;;5.23;84.66;101717.61;107880;1262;71727;-79
2023/04/07 07:07:32;;;;;;;;;;;;;;;5.20;84.65;101718.30;107559;1256;124900;-80
2023/04/07 07:09:59;;;;;;;;;;;;;;;5.20;84.74;101717.23;107143;1256;72411;-80
2023/04/07 07:12:26;;;;;;;;;;;;;;;5.20;84.57;101720.20;107675;1259;124633;-80
2023/04/07 07:14:53;;;;;;;;;;;;;;;5.19;84.58;101721.02;108216;1257;60845;-80
2023/04/07 07:17:20;;;;;;;;;;;;;;;5.21;84.69;101715.23;108050;1257;73859;-80
2023/04/07 07:19:47;;;;;;;;;;;;;;;5.30;84.93;101714.41;108082;1257;124487;-80
2023/04/07 07:22:14;;;;;;;;;;;;;;;5.45;84.99;101714.27;108150;1255;72724;-79
2023/04/07 07:24:42;;;;;;;;;;;;;;;5.52;84.62;101725.68;107636;1256;125164;-79
2023/04/07 07:27:09;;;;;;;;;;;;;;;5.53;84.42;101716.98;107724;1254;58742;-79
2023/04/07 07:29:36;;;;;;;;;;;;;;;5.59;84.46;101717.02;108160;1256;125059;-79
2023/04/07 07:32:03;;;;;;;;;;;;;;;5.64;84.36;101712.13;108242;1258;67076;-80
2023/04/07 07:34:30;;;;;;;;;;;;;;;5.71;84.41;101707.48;107873;1258;72712;-80
2023/04/07 07:36:58;;;;;;;;;;;;;;;5.78;84.24;101707.38;107527;1254;124946;-79
2023/04/07 07:39:25;;;;;;;;;;;;;;;5.85;84.18;101706.20;108096;1256;60145;-78
2023/04/07 07:41:52;;;;;;;;;;;;;;;5.93;84.13;101707.88;107829;1257;125157;-78
2023/04/07 07:44:19;;;;;;;;;;;;;;;5.96;83.99;101708.14;107879;1255;67703;-78
2023/04/07 07:46:46;;;;;;;;;;;;;;;6.00;83.81;101717.09;107974;1260;71286;-79
2023/04/07 07:49:14;;;;;;;;;;;;;;;5.99;83.58;101722.02;107893;1258;124742;-79
2023/04/07 07:51:41;;;;;;;;;;;;;;;5.97;83.45;101724.01;107700;1256;60425;-82
2023/04/07 07:54:08;;;;;;;;;;;;;;;5.95;83.39;101726.71;108690;1257;125598;-80
2023/04/07 07:56:35;;;;;;;;;;;;;;;5.94;83.29;101727.98;108944;1257;67071;-79
2023/04/07 07:59:05;;;;;;;;;;;;;;;5.91;83.33;101722.63;108961;1257;73564;-80
2023/04/07 08:01:32;;;;;;;;;;;;;;;5.97;83.56;101722.61;108826;1257;124602;-79
2023/04/07 08:03:59;;;;;;;;;;;;;;;6.10;83.62;101726.02;108484;1254;60424;-81
2023/04/07 08:06:28;;;;;;;;;;;;;;;6.21;83.54;101725.61;107697;1259;124512;-81
2023/04/07 08:08:55;;;;;;;;;;;;;;;6.26;83.24;101723.30;107885;1254;66236;-80
2023/04/07 08:11:22;;;;;;;;;;;;;;;6.30;83.05;101728.89;107875;1258;72672;-80
2023/04/07 08:13:49;;;;;;;;;;;;;;;6.35;83.14;101728.00;107687;1259;124614;-80
2023/04/07 08:16:16;;;;;;;;;;;;;;;6.35;82.87;101731.51;107552;1257;60084;-80
2023/04/07 08:18:43;;;;;;;;;;;;;;;6.27;82.61;101732.58;108974;1258;125657;-81
2023/04/07 08:21:11;;;;;;;;;;;;;;;6.25;82.72;101727.20;109086;1257;65637;-80
2023/04/07 08:23:38;;;;;;;;;;;;;;;6.25;82.81;101727.60;108665;1258;124642;-81
2023/04/07 08:26:05;;;;;;;;;;;;;;;6.21;82.52;101727.16;108471;1266;60156;-80
2023/04/07 08:28:32;;;;;;;;;;;;;;;6.24;82.57;101728.06;107814;1256;59264;-80
2023/04/07 08:30:59;;;;;;;;;;;;;;;6.35;82.61;101723.45;107687;1259;125218;-80
2023/04/07 08:33:26;;;;;;;;;;;;;;;6.42;82.73;101721.77;107708;1254;66154;-81
2023/04/07 08:35:53;;;;;;;;;;;;;;;6.54;82.57;101725.04;107796;1254;125140;-79
2023/04/07 08:38:21;;;;;;;;;;;;;;;6.59;82.26;101729.70;107827;1258;60121;-79
2023/04/07 08:41:07;;;;;;;;;;;;;;;6.56;81.99;101727.24;109046;1260;61055;-78
2023/04/07 08:43:55;;;;;;;;;;;;;;;6.57;82.08;101725.59;109052;1254;124474;-78
2023/04/07 08:46:22;;;;;;;;;;;;;;;6.67;82.07;101719.98;108891;1255;66002;-79
2023/04/07 08:48:50;;;;;;;;;;;;;;;6.71;81.88;101724.79;108866;1260;124616;-79
2023/04/07 08:51:19;;;;;;;;;;;;;;;6.77;81.98;101723.73;109051;1258;58684;-77
2023/04/07 08:53:50;;;;;;;;;;;;;;;6.76;81.62;101724.20;108850;1254;125619;-79
2023/04/07 08:56:18;;;;;;;;;;;;;;;6.71;81.46;101722.33;108507;1260;73859;-80
2023/04/07 08:58:46;;;;;;;;;;;;;;;6.66;81.41;101722.07;107459;1254;65704;-79
2023/04/07 09:01:14;;;;;;;;;;;;;;;6.62;81.34;101722.20;107797;1258;125027;-80
2023/04/07 09:03:41;;;;;;;;;;;;;;;6.57;81.25;101735.02;107814;1260;59610;-80
2023/04/07 09:06:10;;;;;;;;;;;;;;;6.51;81.10;101721.05;107315;1255;125404;-79
2023/04/07 09:08:36;;;;;;;;;;;;;;;6.47;81.32;101722.39;107757;1255;74389;-79
2023/04/07 09:11:03;;;;;;;;;;;;;;;6.52;81.49;101723.52;107493;1254;68272;-79
2023/04/07 09:13:30;;;;;;;;;;;;;;;6.57;81.51;101718.80;107558;1260;124982;-79
2023/04/07 09:15:58;;;;;;;;;;;;;;;6.75;81.76;101721.86;107932;1254;60182;-79
2023/04/07 09:18:26;;;;;;;;;;;;;;;6.92;81.63;101724.74;107646;1260;125230;-79
2023/04/07 09:20:57;;;;;;;;;;;;;;;6.96;81.06;101722.69;107866;1255;72319;-79
2023/04/07 09:23:30;;;;;;;;;;;;;;;7.00;81.10;101719.59;107716;1260;65919;-81
2023/04/07 09:26:00;;;;;;;;;;;;;;;7.19;81.22;101720.64;107557;1260;124656;-81
2023/04/07 09:28:37;;;;;;;;;;;;;;;7.34;80.93;101719.50;107508;1256;60549;-83
2023/04/07 09:31:05;;;;;;;;;;;;;;;7.32;80.49;101715.89;107520;1258;124398;-81
2023/04/07 09:33:32;;;;;;;;;;;;;;;7.32;80.44;101707.52;107810;1255;72848;-79
2023/04/07 09:35:59;;;;;;;;;;;;;;;7.35;80.35;101705.80;107802;1254;124886;-78
2023/04/07 09:38:33;;;;;;;;;;;;;;;7.41;80.24;101708.89;108187;1254;71611;-79
2023/04/07 09:41:09;;;;;;;;;;;;;;;7.45;80.06;101707.71;107834;1262;296764;-78
2023/04/07 09:43:37;;;;;;;;;;;;;;;7.59;80.08;101705.98;108223;1258;124708;-78
2023/04/07 09:46:14;;;;;;;;;;;;;;;7.77;80.17;101704.85;107871;1254;73101;-78
2023/04/07 09:48:42;;;;;;;;;;;;;;;7.97;79.75;101707.57;107841;1259;124483;-78
2023/04/07 09:51:13;;;;;;;;;;;;;;;8.09;79.17;101705.38;107919;1254;72703;-78
2023/04/07 09:53:47;;;;;;;;;;;;;;;8.10;78.84;101710.17;107643;1267;124689;-79
2023/04/07 09:56:17;;;;;;;;;;;;;;;8.18;78.86;101711.61;107635;1254;60483;-81
2023/04/07 09:58:45;;;;;;;;;;;;;;;8.17;78.26;101710.70;107951;1254;74327;-80
2023/04/07 10:01:13;;;;;;;;;;;;;;;8.04;77.79;101711.41;107842;1259;124486;-80
2023/04/07 10:03:40;;;;;;;;;;;;;;;7.98;78.19;101704.67;107769;1254;71407;-80
2023/04/07 10:06:07;;;;;;;;;;;;;;;8.07;78.17;101703.39;107686;1255;125375;-78
2023/04/07 10:08:35;;;;;;;;;;;;;;;8.02;78.06;101699.98;107759;1258;60628;-78
2023/04/07 10:11:05;;;;;;;;;;;;;;;8.06;78.31;101698.80;107573;1260;73890;-78
2023/04/07 10:13:33;;;;;;;;;;;;;;;8.10;78.02;101701.23;107823;1257;124833;-79
2023/04/07 10:16:01;;;;;;;;;;;;;;;8.13;77.99;101703.50;107503;1260;73168;-79
2023/04/07 10:18:30;;;;;;;;;;;;;;;8.22;77.93;101702.00;107433;1260;125233;-78
2023/04/07 10:21:01;;;;;;;;;;;;;;;8.25;77.66;101701.84;107820;1255;60264;-78
2023/04/07 10:23:35;;;;;;;;;;;;;;;8.23;77.31;101699.63;107682;1261;74905;-78
2023/04/07 10:26:02;;;;;;;;;;;;;;;8.16;77.27;101701.54;109174;1254;65907;-78
2023/04/07 10:28:30;;;;;;;;;;;;;;;8.12;77.13;101708.16;108959;1255;72721;-78
2023/04/07 10:30:57;;;;;;;;;;;;;;;8.06;76.92;101702.95;108647;1257;124312;-78
2023/04/07 10:33:43;;;;;;;;;;;;;;;8.07;76.98;101705.45;108946;1254;58821;-78
2023/04/07 10:36:11;;;;;;;;;;;;;;;8.07;76.95;101697.27;108828;1257;124810;-78
2023/04/07 10:38:38;;;;;;;;;;;;;;;8.17;77.21;101690.90;108910;1254;67304;-78
2023/04/07 10:41:23;;;;;;;;;;;;;;;8.33;77.25;101689.63;109157;1254;71047;-78
2023/04/07 10:43:50;;;;;;;;;;;;;;;8.44;76.98;101683.02;109074;1254;124273;-78
2023/04/07 10:46:17;;;;;;;;;;;;;;;8.49;76.44;101681.86;109014;1254;58700;-79
2023/04/07 10:48:52;;;;;;;;;;;;;;;8.39;75.90;101690.60;108952;1257;125163;-78
2023/04/07 10:51:20;;;;;;;;;;;;;;;8.24;75.84;101686.21;108946;1254;65647;-79
2023/04/07 10:54:05;;;;;;;;;;;;;;;8.21;76.25;101685.73;109140;1254;125594;-79
2023/04/07 10:57:02;;;;;;;;;;;;;;;8.42;76.65;101689.03;109045;1254;58660;-79
2023/04/07 10:59:29;;;;;;;;;;;;;;;8.61;76.52;101683.15;109088;1254;60099;-79
2023/04/07 11:02:12;;;;;;;;;;;;;;;8.86;76.42;101686.94;108759;1254;124185;-79
2023/04/07 11:04:41;;;;;;;;;;;;;;;9.08;76.03;101682.89;108992;1256;65909;-80
2023/04/07 11:07:08;;;;;;;;;;;;;;;9.16;75.36;101687.27;108772;1254;123644;-79
2023/04/07 11:09:35;;;;;;;;;;;;;;;9.10;75.06;101687.38;109081;1254;59539;-79
2023/04/07 11:12:03;;;;;;;;;;;;;;;9.16;75.02;101685.85;108839;1254;124019;-79
2023/04/07 11:14:31;;;;;;;;;;;;;;;9.09;74.75;101688.53;109052;1254;72532;-79
2023/04/07 11:16:58;;;;;;;;;;;;;;;9.01;74.60;101686.06;108951;1254;67076;-80
2023/04/07 11:19:25;;;;;;;;;;;;;;;8.96;74.87;101686.19;109133;1253;124953;-79
2023/04/07 11:22:11;;;;;;;;;;;;;;;8.96;74.80;101684.77;108958;1254;60118;-79
2023/04/07 11:24:38;;;;;;;;;;;;;;;8.81;74.29;101688.96;109036;1254;124689;-80
2023/04/07 11:27:11;;;;;;;;;;;;;;;8.61;74.09;101677.71;108919;1254;74229;-79
2023/04/07 11:29:38;;;;;;;;;;;;;;;8.48;74.43;101679.17;108715;1254;123958;-80
2023/04/07 11:32:05;;;;;;;;;;;;;;;8.46;74.53;101678.04;109104;1254;70993;-80
2023/04/07 11:34:33;;;;;;;;;;;;;;;8.43;74.67;101674.04;109070;1254;59430;-79
2023/04/07 11:37:20;;;;;;;;;;;;;;;8.59;75.01;101665.02;108778;1260;124525;-78
2023/04/07 11:39:53;;;;;;;;;;;;;;;8.81;75.02;101661.65;109121;1254;74298;-77
2023/04/07 11:42:36;;;;;;;;;;;;;;;9.13;75.11;101669.42;108875;1254;124960;-79
2023/04/07 11:45:03;;;;;;;;;;;;;;;9.40;74.75;101657.36;108804;1254;71894;-79
2023/04/07 11:47:37;;;;;;;;;;;;;;;9.69;74.68;101657.73;109031;1254;58523;-79
2023/04/07 11:50:24;;;;;;;;;;;;;;;9.90;74.07;101657.23;108942;1254;58622;-78
2023/04/07 11:52:51;;;;;;;;;;;;;;;10.11;73.80;101654.58;108943;1254;72430;-78
2023/04/07 11:55:20;;;;;;;;;;;;;;;10.25;73.33;101656.20;108995;1254;123903;-78
2023/04/07 11:57:47;;;;;;;;;;;;;;;10.24;72.96;101649.50;108932;1254;72652;-79
2023/04/07 12:00:14;;;;;;;;;;;;;;;10.29;72.63;101646.39;108965;1254;124207;-80
2023/04/07 12:02:41;;;;;;;;;;;;;;;10.39;72.79;101644.88;108893;1254;58740;-81
2023/04/07 12:05:09;;;;;;;;;;;;;;;10.65;73.04;101646.59;108016;1257;73902;-80
2023/04/07 12:07:37;;;;;;;;;;;;;;;10.93;73.07;101647.70;107643;1254;124791;-79
2023/04/07 12:10:19;;;;;;;;;;;;;;;11.18;72.32;101645.27;107621;1254;72430;-79
2023/04/07 12:12:47;;;;;;;;;;;;;;;11.22;71.71;101645.06;107714;1257;124552;-80
2023/04/07 12:15:14;;;;;;;;;;;;;;;11.07;70.90;101648.56;107775;1254;60407;-79
2023/04/07 12:17:46;;;;;;;;;;;;;;;11.00;71.01;101651.45;107963;1254;124848;-79
2023/04/07 12:20:13;;;;;;;;;;;;;;;10.96;70.81;101654.11;107972;1257;66385;-80
2023/04/07 12:22:40;;;;;;;;;;;;;;;10.83;70.24;101658.89;107924;1262;73695;-77
2023/04/07 12:25:07;;;;;;;;;;;;;;;10.63;70.47;101652.34;107634;1254;123115;-78
2023/04/07 12:27:34;;;;;;;;;;;;;;;10.50;70.45;101655.48;107864;1260;60730;-78
2023/04/07 12:30:03;;;;;;;;;;;;;;;10.30;70.25;101663.80;107587;1254;124482;-77
2023/04/07 12:32:31;;;;;;;;;;;;;;;10.13;70.28;101662.23;107883;1257;67100;-79
2023/04/07 12:34:58;;;;;;;;;;;;;;;10.00;70.34;101667.10;107831;1256;73474;-81
2023/04/07 12:37:26;;;;;;;;;;;;;;;9.96;70.67;101663.95;107479;1254;125339;-80
2023/04/07 12:39:53;;;;;;;;;;;;;;;9.91;70.59;101666.92;107629;1254;60339;-82